KPR weather

Port Williams Seaplane Base
Port Williams, Alaska, United States

Public forecast

Using degrees Fahrenheit for public forecast. Weather courtesy of forecast.io.

Closest aviation weather report (METAR) to Port Williams Seaplane Base

Closest report is Kodiak Airport, 44.5 nm (82.5 km) S. Retrieved 2020/08/07 23:53 UTC (27 minutes ago):

PADQ 072353Z 08009KT 10SM FEW034 BKN049 OVC060 14/11 A2958

Closest aviation forecast (TAF) to Port Williams Seaplane Base

Closest forecast is Kodiak Airport, 44.5 nm (82.5 km) S. Retrieved 2020-08-08 00:39 UTC (0 seconds ago):

TAF PADQ 072337Z 0800/0824 09006KT P6SM VCSH BKN035 FM080600 29006KT P6SM BKN060 FM081800 09007KT P6SM BKN025 OVC050